createdAt,value
2023-04-26T00:00:09.532Z,85.50
2023-04-26T00:03:00.412Z,85.33
2023-04-26T00:05:29.793Z,84.94
2023-04-26T00:07:58.642Z,84.66
2023-04-26T00:10:27.253Z,84.50
2023-04-26T00:12:55.600Z,84.34
2023-04-26T00:15:23.963Z,84.55
2023-04-26T00:17:52.388Z,84.07
2023-04-26T00:20:20.740Z,83.73
2023-04-26T00:22:49.068Z,83.70
2023-04-26T00:25:17.643Z,83.81
2023-04-26T00:27:45.974Z,83.91
2023-04-26T00:30:14.839Z,83.60
2023-04-26T00:32:43.154Z,83.86
2023-04-26T00:35:11.733Z,84.37
2023-04-26T00:37:40.026Z,84.32
2023-04-26T00:40:09.289Z,84.33
2023-04-26T00:42:39.636Z,84.06
2023-04-26T00:45:08.532Z,83.97
2023-04-26T00:47:37.240Z,84.09
2023-04-26T00:50:07.396Z,83.97
2023-04-26T00:52:35.819Z,84.15
2023-04-26T00:55:04.298Z,84.18
2023-04-26T00:57:32.589Z,84.10
2023-04-26T01:00:00.979Z,84.22
2023-04-26T01:02:29.381Z,83.74
2023-04-26T01:04:57.883Z,83.76
2023-04-26T01:07:26.426Z,83.66
2023-04-26T01:09:56.873Z,83.35
2023-04-26T01:12:26.848Z,83.61
2023-04-26T01:14:55.902Z,83.56
2023-04-26T01:17:24.874Z,83.41
2023-04-26T01:19:53.331Z,83.04
2023-04-26T01:22:22.026Z,82.76
2023-04-26T01:24:52.540Z,82.96
2023-04-26T01:27:20.862Z,82.82
2023-04-26T01:29:49.263Z,82.86
2023-04-26T01:32:17.703Z,82.77
2023-04-26T01:34:46.688Z,82.54
2023-04-26T01:37:15.069Z,82.54
2023-04-26T01:39:43.404Z,82.30
2023-04-26T01:42:11.822Z,82.55
2023-04-26T01:44:40.139Z,82.44
2023-04-26T01:47:08.678Z,82.35
2023-04-26T01:49:37.128Z,81.92
2023-04-26T01:52:05.752Z,81.49
2023-04-26T01:54:34.179Z,81.68
2023-04-26T01:57:02.850Z,81.64
2023-04-26T01:59:31.375Z,81.48
2023-04-26T02:02:00.471Z,81.92
2023-04-26T02:04:29.644Z,82.17
2023-04-26T02:06:58.019Z,82.50
2023-04-26T02:09:26.345Z,82.75
2023-04-26T02:11:54.737Z,83.08
2023-04-26T02:14:27.344Z,83.22
2023-04-26T02:16:55.631Z,83.33
2023-04-26T02:19:24.204Z,83.42
2023-04-26T02:21:56.294Z,83.68
2023-04-26T02:24:25.493Z,83.40
2023-04-26T02:26:54.738Z,83.62
2023-04-26T02:29:36.226Z,83.47
2023-04-26T02:32:08.843Z,84.02
2023-04-26T02:34:37.152Z,83.84
2023-04-26T02:37:05.821Z,84.04
2023-04-26T02:39:34.222Z,84.29
2023-04-26T02:42:02.643Z,84.45
2023-04-26T02:44:31.321Z,84.58
2023-04-26T02:46:59.851Z,84.48
2023-04-26T02:49:29.312Z,84.71
2023-04-26T02:51:57.646Z,84.72
2023-04-26T02:54:26.294Z,84.95
2023-04-26T02:56:55.490Z,85.03
2023-04-26T02:59:23.852Z,85.08
2023-04-26T03:01:52.264Z,85.92
2023-04-26T03:04:20.859Z,86.22
2023-04-26T03:06:49.160Z,86.76
2023-04-26T03:09:17.962Z,87.09
2023-04-26T03:11:48.906Z,87.60
2023-04-26T03:14:18.482Z,87.76
2023-04-26T03:16:48.599Z,88.02
2023-04-26T03:19:17.165Z,88.36
2023-04-26T03:21:45.808Z,88.59
2023-04-26T03:24:14.295Z,89.04
2023-04-26T03:26:42.623Z,88.96
2023-04-26T03:29:12.556Z,89.03
2023-04-26T03:31:41.117Z,89.45
2023-04-26T03:34:09.706Z,89.59
2023-04-26T03:36:38.594Z,89.52
2023-04-26T03:39:07.562Z,89.79
2023-04-26T03:41:39.597Z,89.94
2023-04-26T03:44:08.545Z,89.76
2023-04-26T03:46:36.977Z,89.91
2023-04-26T03:49:05.459Z,89.97
2023-04-26T03:51:33.996Z,90.19
2023-04-26T03:54:02.351Z,90.30
2023-04-26T03:56:30.694Z,90.40
2023-04-26T03:58:59.035Z,90.33
2023-04-26T04:01:27.826Z,90.32
2023-04-26T04:03:56.777Z,90.45
2023-04-26T04:06:25.453Z,90.69
2023-04-26T04:08:54.091Z,90.56
2023-04-26T04:11:23.778Z,90.78
2023-04-26T04:13:52.514Z,90.73
2023-04-26T04:16:20.945Z,90.60
2023-04-26T04:18:49.508Z,90.69
2023-04-26T04:21:17.898Z,90.88
2023-04-26T04:23:46.797Z,90.59
2023-04-26T04:26:15.151Z,90.52
2023-04-26T04:28:45.228Z,90.71
2023-04-26T04:31:14.479Z,90.45
2023-04-26T04:33:43.477Z,90.42
2023-04-26T04:36:11.880Z,90.50
2023-04-26T04:38:40.319Z,90.53
2023-04-26T04:41:10.399Z,90.86
2023-04-26T04:43:38.921Z,91.17
2023-04-26T04:46:08.466Z,90.66
2023-04-26T04:48:38.875Z,90.89
2023-04-26T04:51:08.170Z,90.72
2023-04-26T04:53:38.305Z,90.84
2023-04-26T04:56:07.897Z,90.54
2023-04-26T04:58:36.280Z,90.47
2023-04-26T05:01:04.732Z,90.35
2023-04-26T05:03:44.953Z,90.20
2023-04-26T05:06:13.370Z,90.23
2023-04-26T05:08:42.272Z,90.10
2023-04-26T05:11:11.230Z,89.56
2023-04-26T05:13:39.624Z,89.31
2023-04-26T05:16:08.186Z,89.34
2023-04-26T05:18:36.983Z,89.34
2023-04-26T05:21:05.841Z,88.66
2023-04-26T05:23:34.673Z,88.54
2023-04-26T05:26:07.706Z,88.87
2023-04-26T05:28:56.352Z,89.29
2023-04-26T05:31:45.164Z,88.85
2023-04-26T05:34:37.514Z,88.50
2023-04-26T05:37:05.810Z,88.08
2023-04-26T05:39:34.304Z,88.00
2023-04-26T05:42:03.680Z,87.87
2023-04-26T05:44:32.982Z,87.41
2023-04-26T05:47:01.438Z,87.02
2023-04-26T05:49:29.800Z,86.79
2023-04-26T05:52:01.368Z,86.59
2023-04-26T05:54:29.978Z,86.81
2023-04-26T05:56:59.300Z,86.71
2023-04-26T05:59:32.990Z,86.53
2023-04-26T06:02:01.797Z,86.32
2023-04-26T06:04:30.481Z,86.04
2023-04-26T06:07:11.528Z,86.09
2023-04-26T06:09:40.719Z,86.15
2023-04-26T06:12:09.101Z,86.25
2023-04-26T06:14:40.234Z,85.88
2023-04-26T06:17:12.119Z,85.73
2023-04-26T06:19:40.472Z,85.64
2023-04-26T06:22:08.770Z,85.74
2023-04-26T06:24:37.081Z,85.60
2023-04-26T06:27:05.522Z,85.63
2023-04-26T06:29:34.134Z,85.17
2023-04-26T06:32:02.553Z,84.94
2023-04-26T06:34:31.770Z,85.08
2023-04-26T06:37:00.522Z,84.80
2023-04-26T06:39:28.982Z,84.50
2023-04-26T06:41:57.333Z,84.86
2023-04-26T06:44:48.477Z,84.14
2023-04-26T06:47:18.293Z,84.50
2023-04-26T06:49:46.646Z,84.55
2023-04-26T06:52:15.015Z,84.34
2023-04-26T06:54:55.925Z,83.94
2023-04-26T06:57:26.203Z,83.90
2023-04-26T06:59:54.579Z,84.10
2023-04-26T07:02:24.584Z,83.86
2023-04-26T07:04:53.789Z,83.59
2023-04-26T07:07:22.299Z,83.48
2023-04-26T07:09:50.601Z,83.76
2023-04-26T07:12:18.916Z,83.30
2023-04-26T07:14:47.516Z,82.71
2023-04-26T07:17:15.934Z,83.03
2023-04-26T07:19:44.296Z,83.49
2023-04-26T07:22:12.573Z,82.93
2023-04-26T07:24:40.818Z,82.91
2023-04-26T07:27:09.077Z,82.69
2023-04-26T07:29:37.440Z,82.59
2023-04-26T07:32:06.879Z,82.35
2023-04-26T07:34:35.185Z,81.85
2023-04-26T07:37:03.534Z,82.18
2023-04-26T07:39:34.492Z,81.76
2023-04-26T07:42:03.177Z,81.03
2023-04-26T07:44:31.454Z,79.95
2023-04-26T07:46:59.734Z,80.16
2023-04-26T07:49:27.983Z,79.72
2023-04-26T07:51:58.325Z,79.88
2023-04-26T07:54:27.027Z,79.92
2023-04-26T07:56:55.592Z,80.15
2023-04-26T07:59:24.280Z,79.49
2023-04-26T08:01:52.884Z,79.61
2023-04-26T08:04:33.017Z,79.28
2023-04-26T08:07:04.269Z,78.98
2023-04-26T08:09:32.906Z,78.89
2023-04-26T08:12:01.500Z,78.09
2023-04-26T08:14:31.075Z,77.74
2023-04-26T08:16:59.464Z,78.32
2023-04-26T08:19:32.759Z,78.96
2023-04-26T08:22:01.190Z,78.77
2023-04-26T08:24:29.574Z,77.78
2023-04-26T08:26:59.136Z,78.01
2023-04-26T08:29:28.069Z,78.24
2023-04-26T08:31:56.709Z,78.39
2023-04-26T08:34:25.097Z,78.15
2023-04-26T08:36:53.374Z,78.51
2023-04-26T08:39:21.668Z,78.92
2023-04-26T08:41:55.036Z,79.02
2023-04-26T08:44:25.383Z,78.68
2023-04-26T08:47:15.272Z,78.79
2023-04-26T08:49:53.706Z,78.83
2023-04-26T08:52:23.573Z,78.30
2023-04-26T08:54:53.674Z,78.23
2023-04-26T08:57:22.764Z,78.50
2023-04-26T08:59:53.035Z,78.04
2023-04-26T09:02:23.295Z,77.69
2023-04-26T09:04:52.426Z,78.04
2023-04-26T09:07:40.878Z,77.91
2023-04-26T09:10:10.224Z,77.42
2023-04-26T09:12:39.201Z,76.84
2023-04-26T09:15:08.191Z,76.83
2023-04-26T09:17:39.233Z,76.48
2023-04-26T09:20:26.658Z,76.27
2023-04-26T09:23:09.494Z,76.68
2023-04-26T09:25:38.296Z,75.97
2023-04-26T09:28:21.395Z,75.55
2023-04-26T09:30:49.971Z,75.93
2023-04-26T09:33:19.712Z,75.68
2023-04-26T09:35:48.112Z,75.12
2023-04-26T09:38:18.337Z,74.68
2023-04-26T09:40:48.613Z,74.75
2023-04-26T09:43:22.036Z,74.20
2023-04-26T09:45:51.558Z,74.09
2023-04-26T09:48:23.028Z,74.37
2023-04-26T09:50:53.648Z,74.32
2023-04-26T09:53:42.498Z,74.35
2023-04-26T09:56:15.848Z,74.46
2023-04-26T09:58:44.135Z,74.80
2023-04-26T10:01:15.372Z,73.90
2023-04-26T10:03:45.048Z,73.51
2023-04-26T10:06:13.773Z,72.66
2023-04-26T10:08:42.657Z,72.68
2023-04-26T10:11:11.888Z,71.79
2023-04-26T10:13:41.984Z,71.69
2023-04-26T10:16:10.717Z,71.62
2023-04-26T10:18:39.283Z,70.94
2023-04-26T10:21:13.031Z,68.81
2023-04-26T10:23:41.878Z,69.15
2023-04-26T10:26:57.736Z,69.36
2023-04-26T10:29:28.106Z,69.09
2023-04-26T10:32:02.333Z,69.27
2023-04-26T10:34:32.547Z,68.27
2023-04-26T10:37:17.823Z,67.03
2023-04-26T10:39:47.395Z,67.76
2023-04-26T10:42:25.137Z,67.41
2023-04-26T10:44:56.200Z,66.41
2023-04-26T10:47:31.570Z,66.42
2023-04-26T10:50:12.232Z,66.63
2023-04-26T10:53:03.870Z,66.66
2023-04-26T10:55:42.613Z,66.44
2023-04-26T10:58:29.966Z,65.37
2023-04-26T11:01:08.543Z,65.86
2023-04-26T11:03:38.007Z,65.57
2023-04-26T11:06:09.629Z,66.41
2023-04-26T11:08:38.107Z,66.10
2023-04-26T11:11:12.212Z,65.66
2023-04-26T11:13:44.464Z,65.43
2023-04-26T11:16:14.653Z,65.41
2023-04-26T11:18:45.219Z,65.69
2023-04-26T11:21:18.140Z,65.11
2023-04-26T11:23:56.183Z,64.71
2023-04-26T11:26:32.696Z,64.19
2023-04-26T11:29:01.501Z,64.28
2023-04-26T11:31:31.107Z,64.17
2023-04-26T11:34:05.634Z,63.96
2023-04-26T11:36:37.183Z,63.34
2023-04-26T11:39:05.883Z,63.78
2023-04-26T11:41:34.142Z,63.38
2023-04-26T11:44:02.527Z,63.38
2023-04-26T11:46:31.258Z,64.11
2023-04-26T11:49:00.115Z,63.27
2023-04-26T11:51:31.186Z,64.10
2023-04-26T11:54:01.731Z,64.46
2023-04-26T11:56:31.108Z,64.60
2023-04-26T11:59:00.096Z,64.27
2023-04-26T12:01:29.963Z,64.56
2023-04-26T12:04:00.060Z,63.65
2023-04-26T12:06:41.839Z,63.89
2023-04-26T12:09:11.490Z,64.05
2023-04-26T12:11:40.695Z,64.47
2023-04-26T12:14:10.333Z,64.49
2023-04-26T12:16:39.126Z,63.99
2023-04-26T12:19:08.916Z,63.56
2023-04-26T12:21:44.106Z,63.22
2023-04-26T12:24:26.002Z,61.82
2023-04-26T12:26:54.456Z,61.35
2023-04-26T12:29:22.852Z,60.27
2023-04-26T12:31:51.403Z,60.68
2023-04-26T12:34:19.979Z,60.47
2023-04-26T12:36:48.365Z,59.72
2023-04-26T12:39:16.962Z,59.88
2023-04-26T12:41:46.622Z,58.63
2023-04-26T12:44:14.993Z,58.19
2023-04-26T12:46:43.794Z,57.82
2023-04-26T12:49:12.465Z,58.03
2023-04-26T12:51:40.885Z,58.57
2023-04-26T12:54:09.401Z,58.64
2023-04-26T12:56:43.907Z,58.49
2023-04-26T12:59:12.431Z,58.28
2023-04-26T13:01:41.378Z,59.05
2023-04-26T13:04:10.278Z,57.55
2023-04-26T13:06:38.769Z,55.04
2023-04-26T13:09:08.292Z,54.09
2023-04-26T13:11:36.591Z,52.85
2023-04-26T13:14:06.947Z,54.37
2023-04-26T13:16:35.611Z,55.11
2023-04-26T13:19:04.121Z,55.15
2023-04-26T13:21:32.848Z,54.19
2023-04-26T13:24:01.355Z,54.58
2023-04-26T13:26:29.693Z,54.46
2023-04-26T13:28:58.029Z,54.52
2023-04-26T13:31:26.972Z,54.46
2023-04-26T13:33:55.330Z,53.89
2023-04-26T13:36:23.655Z,54.78
2023-04-26T13:38:52.057Z,55.02
2023-04-26T13:41:20.434Z,55.66
2023-04-26T13:43:48.832Z,56.11
2023-04-26T13:46:17.233Z,56.71
2023-04-26T13:48:45.615Z,57.18
2023-04-26T13:51:14.051Z,57.26
2023-04-26T13:53:42.414Z,57.76
2023-04-26T13:56:10.905Z,57.68
2023-04-26T13:58:42.410Z,57.29
2023-04-26T14:01:10.862Z,56.92
2023-04-26T14:03:39.311Z,57.17
2023-04-26T14:06:07.976Z,57.09
2023-04-26T14:08:36.379Z,54.05
2023-04-26T14:11:05.082Z,53.30
2023-04-26T14:13:33.758Z,53.80
2023-04-26T14:16:02.242Z,53.60
2023-04-26T14:18:30.608Z,53.94
2023-04-26T14:20:58.954Z,54.16
2023-04-26T14:23:27.272Z,53.68
2023-04-26T14:25:55.794Z,52.57
2023-04-26T14:28:24.199Z,52.78
2023-04-26T14:30:52.486Z,52.64
2023-04-26T14:33:22.058Z,51.94
2023-04-26T14:35:51.353Z,50.87
2023-04-26T14:38:19.697Z,51.05
2023-04-26T14:40:48.249Z,51.35
2023-04-26T14:43:16.675Z,51.35
2023-04-26T14:45:45.324Z,51.88
2023-04-26T14:48:13.785Z,51.83
2023-04-26T14:50:42.449Z,52.47
2023-04-26T14:53:11.220Z,52.54
2023-04-26T14:55:39.600Z,52.53
2023-04-26T14:58:08.032Z,52.33
2023-04-26T15:00:36.368Z,52.37
2023-04-26T15:03:04.911Z,52.42
2023-04-26T15:05:33.380Z,52.46
2023-04-26T15:08:01.727Z,52.14
2023-04-26T15:10:30.063Z,51.84
2023-04-26T15:12:58.444Z,52.10
2023-04-26T15:15:26.738Z,52.29
2023-04-26T15:17:55.489Z,52.13
2023-04-26T15:20:24.536Z,52.09
2023-04-26T15:22:52.868Z,52.18
2023-04-26T15:25:21.238Z,52.02
2023-04-26T15:27:50.483Z,51.18
2023-04-26T15:30:18.867Z,50.88
2023-04-26T15:32:49.544Z,50.87
2023-04-26T15:35:18.038Z,50.99
2023-04-26T15:37:46.457Z,51.34
2023-04-26T15:40:14.785Z,51.13
2023-04-26T15:42:43.211Z,51.16
2023-04-26T15:45:11.721Z,51.37
2023-04-26T15:47:40.066Z,51.25
2023-04-26T15:50:09.303Z,51.40
2023-04-26T15:52:39.448Z,51.47
2023-04-26T15:55:08.302Z,51.06
2023-04-26T15:57:36.956Z,50.65
2023-04-26T16:00:08.583Z,50.15
2023-04-26T16:02:36.975Z,50.39
2023-04-26T16:05:07.377Z,50.87
2023-04-26T16:07:35.938Z,50.84
2023-04-26T16:10:05.938Z,50.83
2023-04-26T16:12:34.374Z,50.59
2023-04-26T16:15:02.981Z,51.07
2023-04-26T16:17:31.330Z,50.86
2023-04-26T16:20:00.771Z,51.36
2023-04-26T16:22:29.119Z,51.23
2023-04-26T16:24:59.105Z,50.98
2023-04-26T16:27:27.679Z,51.00
2023-04-26T16:29:57.020Z,51.31
2023-04-26T16:32:26.579Z,50.51
2023-04-26T16:34:54.920Z,50.75
2023-04-26T16:37:23.263Z,50.09
2023-04-26T16:39:55.915Z,50.83
2023-04-26T16:42:24.250Z,51.20
2023-04-26T16:44:54.939Z,51.09
2023-04-26T16:47:23.073Z,51.40
2023-04-26T16:49:51.611Z,51.93
2023-04-26T16:52:19.875Z,51.64
2023-04-26T16:54:48.166Z,51.90
2023-04-26T16:57:16.745Z,51.53
2023-04-26T16:59:45.180Z,51.75
2023-04-26T17:02:14.154Z,52.01
2023-04-26T17:04:42.779Z,52.55
2023-04-26T17:07:12.899Z,52.53
2023-04-26T17:09:41.234Z,53.04
2023-04-26T17:12:09.626Z,53.41
2023-04-26T17:14:37.991Z,53.70
2023-04-26T17:17:06.500Z,54.04
2023-04-26T17:19:34.768Z,53.86
2023-04-26T17:22:03.106Z,54.29
2023-04-26T17:24:31.358Z,54.53
2023-04-26T17:26:59.763Z,54.68
2023-04-26T17:29:28.267Z,55.08
2023-04-26T17:31:56.720Z,55.65
2023-04-26T17:34:25.044Z,56.18
2023-04-26T17:36:53.342Z,56.38
2023-04-26T17:39:21.611Z,56.53
2023-04-26T17:41:51.487Z,56.90
2023-04-26T17:44:19.900Z,57.18
2023-04-26T17:46:48.212Z,57.41
2023-04-26T17:49:16.600Z,57.71
2023-04-26T17:51:44.885Z,57.86
2023-04-26T17:54:14.242Z,58.23
2023-04-26T17:56:43.596Z,58.19
2023-04-26T17:59:12.154Z,59.06
2023-04-26T18:01:40.549Z,59.30
2023-04-26T18:04:09.173Z,59.21
2023-04-26T18:06:38.187Z,59.57
2023-04-26T18:09:07.261Z,59.45
2023-04-26T18:11:35.719Z,59.70
2023-04-26T18:14:03.977Z,59.87
2023-04-26T18:16:32.379Z,60.04
2023-04-26T18:19:00.768Z,60.47
2023-04-26T18:21:29.103Z,60.47
2023-04-26T18:23:57.545Z,60.77
2023-04-26T18:26:26.185Z,60.76
2023-04-26T18:28:55.368Z,61.08
2023-04-26T18:31:23.678Z,61.39
2023-04-26T18:33:52.011Z,61.39
2023-04-26T18:36:20.374Z,61.26
2023-04-26T18:38:48.765Z,61.36
2023-04-26T18:41:18.074Z,61.37
2023-04-26T18:43:46.351Z,61.06
2023-04-26T18:46:14.777Z,61.40
2023-04-26T18:48:43.161Z,61.60
2023-04-26T18:51:11.392Z,61.76
2023-04-26T18:53:39.711Z,62.00
2023-04-26T18:56:08.008Z,62.40
2023-04-26T18:58:36.860Z,62.47
2023-04-26T19:01:07.923Z,62.92
2023-04-26T19:03:36.870Z,63.01
2023-04-26T19:06:15.202Z,63.25
2023-04-26T19:08:44.488Z,63.51
2023-04-26T19:11:13.563Z,63.88
2023-04-26T19:13:42.844Z,63.96
2023-04-26T19:16:11.988Z,64.33
2023-04-26T19:18:40.899Z,64.21
2023-04-26T19:21:10.216Z,64.18
2023-04-26T19:23:38.810Z,64.37
2023-04-26T19:26:09.600Z,64.39
2023-04-26T19:28:38.372Z,64.48
2023-04-26T19:31:07.115Z,64.47
2023-04-26T19:33:37.070Z,65.16
2023-04-26T19:36:05.845Z,65.24
2023-04-26T19:38:34.385Z,65.24
2023-04-26T19:41:03.264Z,65.38
2023-04-26T19:43:31.722Z,65.43
2023-04-26T19:46:00.097Z,65.64
2023-04-26T19:48:28.545Z,65.32
2023-04-26T19:50:56.903Z,65.45
2023-04-26T19:53:25.204Z,65.90
2023-04-26T19:55:53.429Z,66.07
2023-04-26T19:58:21.877Z,66.16
2023-04-26T20:00:51.244Z,66.00
2023-04-26T20:03:20.100Z,66.23
2023-04-26T20:05:49.589Z,66.23
2023-04-26T20:08:18.072Z,66.18
2023-04-26T20:10:46.689Z,66.17
2023-04-26T20:13:15.014Z,66.25
2023-04-26T20:15:43.512Z,66.28
2023-04-26T20:18:11.815Z,66.38
2023-04-26T20:20:40.116Z,66.37
2023-04-26T20:23:08.504Z,66.56
2023-04-26T20:25:36.882Z,66.32
2023-04-26T20:28:05.424Z,66.52
2023-04-26T20:30:34.040Z,66.67
2023-04-26T20:33:02.589Z,66.66
2023-04-26T20:35:31.107Z,66.94
2023-04-26T20:37:59.477Z,67.11
2023-04-26T20:40:27.828Z,67.50
2023-04-26T20:42:56.223Z,67.54
2023-04-26T20:45:24.898Z,67.77
2023-04-26T20:47:53.253Z,67.73
2023-04-26T20:50:21.980Z,68.20
2023-04-26T20:52:50.703Z,68.30
2023-04-26T20:55:19.115Z,68.69
2023-04-26T20:57:47.631Z,68.58
2023-04-26T21:00:16.306Z,68.81
2023-04-26T21:02:44.784Z,68.95
2023-04-26T21:05:13.182Z,69.07
2023-04-26T21:07:41.559Z,69.14
2023-04-26T21:10:10.415Z,69.04
2023-04-26T21:12:38.681Z,68.88
2023-04-26T21:15:07.692Z,69.10
2023-04-26T21:17:36.424Z,69.34
2023-04-26T21:20:05.351Z,69.38
2023-04-26T21:22:33.657Z,69.33
2023-04-26T21:25:02.065Z,69.24
2023-04-26T21:27:30.650Z,69.29
2023-04-26T21:29:58.926Z,69.41
2023-04-26T21:32:27.289Z,69.48
2023-04-26T21:34:55.998Z,69.21
2023-04-26T21:37:24.500Z,69.58
2023-04-26T21:39:53.207Z,69.48
2023-04-26T21:42:21.519Z,69.69
2023-04-26T21:44:49.825Z,69.78
2023-04-26T21:47:18.480Z,69.93
2023-04-26T21:49:46.893Z,69.64
2023-04-26T21:52:15.512Z,69.72
2023-04-26T21:54:43.839Z,69.88
2023-04-26T21:57:12.178Z,69.84
2023-04-26T21:59:42.360Z,69.95
2023-04-26T22:02:10.675Z,70.15
2023-04-26T22:04:39.169Z,70.22
2023-04-26T22:07:07.530Z,70.36
2023-04-26T22:09:36.125Z,70.45
2023-04-26T22:12:04.729Z,70.59
2023-04-26T22:14:33.097Z,70.90
2023-04-26T22:17:02.244Z,70.80
2023-04-26T22:19:30.854Z,70.73
2023-04-26T22:21:59.167Z,70.69
2023-04-26T22:24:27.551Z,70.62
2023-04-26T22:26:56.032Z,70.45
2023-04-26T22:29:24.376Z,70.43
2023-04-26T22:31:52.869Z,70.71
2023-04-26T22:34:21.219Z,70.53
2023-04-26T22:36:49.532Z,70.46
2023-04-26T22:39:17.808Z,70.86
2023-04-26T22:41:46.153Z,70.60
2023-04-26T22:44:15.148Z,70.68
2023-04-26T22:46:43.775Z,70.52
2023-04-26T22:49:12.337Z,70.67
2023-04-26T22:51:44.149Z,70.70
2023-04-26T22:54:16.555Z,70.87
2023-04-26T22:56:44.837Z,70.80
2023-04-26T22:59:13.331Z,70.83
2023-04-26T23:01:41.927Z,70.87
2023-04-26T23:04:10.354Z,70.70
2023-04-26T23:06:38.651Z,70.78
2023-04-26T23:09:06.968Z,70.92
2023-04-26T23:11:35.304Z,70.79
2023-04-26T23:14:04.448Z,70.78
2023-04-26T23:16:34.353Z,70.85
2023-04-26T23:19:02.682Z,71.01
2023-04-26T23:21:30.979Z,70.96
2023-04-26T23:23:59.381Z,71.13
2023-04-26T23:26:27.627Z,70.94
2023-04-26T23:28:55.983Z,71.10
2023-04-26T23:31:24.437Z,71.25
2023-04-26T23:33:52.814Z,71.16
2023-04-26T23:36:21.153Z,71.43
2023-04-26T23:38:49.464Z,71.16
2023-04-26T23:41:17.829Z,71.37
2023-04-26T23:43:46.430Z,71.35
2023-04-26T23:46:14.764Z,71.46
2023-04-26T23:48:43.180Z,71.39
2023-04-26T23:51:11.580Z,71.31
2023-04-26T23:53:39.821Z,71.70
2023-04-26T23:56:08.384Z,71.67
2023-04-26T23:58:36.751Z,71.48
